Time;durP1;ratioP1;P1;durP2;ratioP2;P2;SDS_P1;SDS_P2;PMS_P1;PMS_P2;Temp;Humidity;BMP_temperature;BMP_pressure;BME280_temperature;BME280_humidity;BME280_pressure;Samples;Min_cycle;Max_cycle;Signal;HPM_P1;HPM_P2
2022/12/13 00:00:18;;;;;;;1.98;1.55;;;14.00;64.20;;;;;;5100657;28;20211;-62
2022/12/13 00:02:44;;;;;;;1.70;1.55;;;14.00;64.00;;;;;;5101914;28;20315;-63
2022/12/13 00:05:11;;;;;;;2.38;1.70;;;14.10;64.00;;;;;;5101906;28;20028;-63
2022/12/13 00:07:37;;;;;;;1.45;1.35;;;14.10;63.90;;;;;;5101836;28;20081;-63
2022/12/13 00:10:04;;;;;;;1.95;1.63;;;14.10;63.90;;;;;;5101845;28;20024;-63
2022/12/13 00:12:30;;;;;;;1.85;1.48;;;14.10;63.90;;;;;;5101706;28;20031;-64
2022/12/13 00:14:56;;;;;;;1.70;1.60;;;14.10;63.80;;;;;;5101818;28;20216;-63
2022/12/13 00:17:22;;;;;;;1.50;1.35;;;14.00;63.80;;;;;;5102034;28;20020;-64
2022/12/13 00:19:49;;;;;;;1.65;1.38;;;14.10;63.80;;;;;;5105280;28;20044;-63
2022/12/13 00:22:18;;;;;;;1.55;1.30;;;14.10;63.80;;;;;;5104515;28;20020;-63
2022/12/13 00:24:43;;;;;;;;;;;14.00;63.70;;;;;;5105962;28;20012;-63
2022/12/13 00:27:09;;;;;;;1.60;1.50;;;14.10;63.70;;;;;;5105624;28;19900;-63
2022/12/13 00:29:35;;;;;;;1.88;1.48;;;14.00;64.00;;;;;;5105493;28;20031;-63
2022/12/13 00:32:01;;;;;;;1.63;1.25;;;14.10;63.90;;;;;;5105463;28;20039;-64
2022/12/13 00:34:27;;;;;;;1.98;1.42;;;14.10;63.80;;;;;;5105482;28;20023;-62
2022/12/13 00:36:54;;;;;;;1.65;1.50;;;14.10;63.90;;;;;;5105368;28;20016;-63
2022/12/13 00:39:19;;;;;;;2.20;1.60;;;14.10;64.00;;;;;;5105168;28;20047;-64
2022/12/13 00:41:46;;;;;;;2.05;1.75;;;14.00;64.40;;;;;;5105213;28;20328;-63
2022/12/13 00:44:13;;;;;;;1.80;1.70;;;13.90;64.50;;;;;;5105199;28;20431;-63
2022/12/13 00:46:40;;;;;;;3.08;2.00;;;13.90;64.80;;;;;;5105149;28;20030;-62
2022/12/13 00:49:05;;;;;;;2.13;1.67;;;13.90;65.00;;;;;;5105140;28;20020;-63
2022/12/13 00:51:33;;;;;;;2.55;1.90;;;13.90;65.00;;;;;;5105124;28;20042;-63
2022/12/13 00:53:59;;;;;;;1.30;1.20;;;13.90;65.20;;;;;;5105259;28;20047;-63
2022/12/13 00:56:27;;;;;;;1.70;1.50;;;13.80;65.10;;;;;;5104943;28;20012;-64
2022/12/13 00:58:54;;;;;;;1.95;1.60;;;13.80;65.20;;;;;;5104896;28;20024;-62
2022/12/13 01:01:23;;;;;;;1.75;1.63;;;13.90;64.90;;;;;;5104904;28;20012;-62
2022/12/13 01:03:49;;;;;;;1.50;1.40;;;13.90;64.60;;;;;;5104877;28;20204;-63
2022/12/13 01:06:21;;;;;;;2.35;1.85;;;14.00;64.20;;;;;;5104854;28;20023;-63
2022/12/13 01:08:48;;;;;;;2.25;2.05;;;13.90;64.00;;;;;;5104835;28;20433;-62
2022/12/13 01:11:17;;;;;;;2.13;1.60;;;14.00;64.00;;;;;;5104727;28;20034;-63
2022/12/13 01:13:43;;;;;;;1.70;1.60;;;14.00;64.10;;;;;;5104558;28;20233;-62
2022/12/13 01:16:11;;;;;;;2.05;1.75;;;14.00;63.80;;;;;;5104651;28;20031;-62
2022/12/13 01:18:38;;;;;;;1.50;1.40;;;14.00;63.60;;;;;;5104289;28;20372;-63
2022/12/13 01:21:15;;;;;;;1.85;1.60;;;14.00;63.90;;;;;;5104533;28;20075;-63
2022/12/13 01:23:42;;;;;;;3.03;1.90;;;14.00;63.70;;;;;;5104516;28;20022;-63
2022/12/13 01:26:11;;;;;;;2.75;2.45;;;14.00;63.70;;;;;;5104415;28;20012;-64
2022/12/13 01:28:39;;;;;;;1.55;1.23;;;14.00;63.80;;;;;;5103957;28;20096;-63
2022/12/13 01:31:09;;;;;;;2.65;2.00;;;14.00;63.90;;;;;;5104251;28;20079;-63
2022/12/13 01:33:35;;;;;;;1.70;1.40;;;14.00;63.70;;;;;;5104211;28;20036;-63
2022/12/13 01:36:03;;;;;;;1.73;1.63;;;14.00;63.80;;;;;;5104190;28;20016;-64
2022/12/13 01:38:29;;;;;;;1.77;1.33;;;14.00;63.70;;;;;;5104040;28;20016;-63
2022/12/13 01:40:58;;;;;;;1.73;1.58;;;14.00;63.80;;;;;;5104155;28;20012;-64
2022/12/13 01:43:29;;;;;;;3.00;1.98;;;14.00;63.70;;;;;;5104107;28;20016;-63
2022/12/13 01:45:55;;;;;;;2.38;1.73;;;14.00;63.80;;;;;;5103943;28;20024;-63
2022/12/13 01:48:28;;;;;;;1.83;1.65;;;14.00;64.40;;;;;;5104015;28;20023;-62
2022/12/13 01:50:59;;;;;;;1.58;1.30;;;13.90;64.30;;;;;;5104006;28;20024;-63
2022/12/13 01:53:30;;;;;;;1.38;1.27;;;13.90;64.40;;;;;;5103972;28;20016;-63
2022/12/13 01:56:03;;;;;;;1.75;1.45;;;13.90;64.80;;;;;;5103853;28;20020;-63
2022/12/13 01:58:30;;;;;;;1.58;1.48;;;13.90;64.90;;;;;;5103718;28;20019;-63
2022/12/13 02:00:58;;;;;;;1.40;1.30;;;13.90;64.90;;;;;;5103698;28;20012;-63
2022/12/13 02:03:24;;;;;;;1.40;1.30;;;13.90;65.00;;;;;;5103889;28;20057;-64
2022/12/13 02:06:04;;;;;;;1.85;1.50;;;13.90;64.50;;;;;;5103602;28;20087;-64
2022/12/13 02:08:30;;;;;;;1.83;1.40;;;14.00;64.40;;;;;;5103621;28;20040;-63
2022/12/13 02:10:57;;;;;;;1.60;1.45;;;14.00;64.20;;;;;;5103534;28;20019;-63
2022/12/13 02:13:23;;;;;;;1.60;1.50;;;14.00;64.20;;;;;;5103448;28;20015;-63
2022/12/13 02:16:06;;;;;;;1.92;1.67;;;14.00;64.00;;;;;;5103396;28;20025;-62
2022/12/13 02:18:38;;;;;;;1.73;1.50;;;14.00;64.00;;;;;;5103143;28;20016;-63
2022/12/13 02:21:13;;;;;;;1.75;1.58;;;14.00;63.90;;;;;;5103351;28;20357;-63
2022/12/13 02:24:15;;;;;;;2.65;1.50;;;14.00;63.80;;;;;;5103424;28;20027;-63
2022/12/13 02:27:04;;;;;;;3.13;1.58;;;14.00;63.80;;;;;;5103532;28;20036;-64
2022/12/13 02:30:00;;;;;;;1.52;1.38;;;14.00;63.90;;;;;;5103232;28;20024;-63
2022/12/13 02:32:32;;;;;;;1.63;1.50;;;14.00;63.60;;;;;;5103434;28;20020;-63
2022/12/13 02:35:05;;;;;;;2.03;1.52;;;14.00;64.40;;;;;;5103172;28;20247;-63
2022/12/13 02:37:52;;;;;;;2.28;1.80;;;14.00;63.80;;;;;;5103100;28;20331;-63
2022/12/13 02:40:31;;;;;;;1.88;1.50;;;14.00;64.40;;;;;;5102238;28;20227;-63
2022/12/13 02:43:06;;;;;;;1.90;1.30;;;14.00;63.70;;;;;;5103262;28;20016;-62
2022/12/13 02:45:45;;;;;;;1.52;1.30;;;14.00;63.60;;;;;;5102942;28;20008;-64
2022/12/13 02:48:12;;;;;;;1.92;1.55;;;14.00;63.70;;;;;;5102876;28;20106;-62
2022/12/13 02:50:40;;;;;;;1.42;1.33;;;14.00;63.70;;;;;;5102861;28;20044;-63
2022/12/13 02:53:07;;;;;;;2.78;1.48;;;13.90;64.10;;;;;;5102752;28;20191;-63
2022/12/13 02:55:36;;;;;;;2.08;1.77;;;13.90;64.20;;;;;;5103012;28;20088;-63
2022/12/13 02:58:02;;;;;;;2.67;1.70;;;13.90;64.30;;;;;;5102751;28;20020;-63
2022/12/13 03:00:43;;;;;;;1.60;1.30;;;13.90;64.30;;;;;;5102813;28;20028;-63
2022/12/13 03:03:17;;;;;;;1.67;1.38;;;13.80;64.40;;;;;;5102710;28;20591;-63
2022/12/13 03:06:28;;;;;;;2.50;1.85;;;13.80;64.70;;;;;;5102836;28;20073;-63
2022/12/13 03:09:16;;;;;;;1.90;1.60;;;13.80;64.70;;;;;;5102515;28;20354;-62
2022/12/13 03:14:38;;;;;;;1.50;1.40;;;13.90;64.40;;;;;;5102547;28;20023;-63
2022/12/13 03:17:06;;;;;;;1.38;1.27;;;13.90;64.10;;;;;;5102506;28;20016;-62
2022/12/13 03:19:32;;;;;;;1.92;1.52;;;14.00;64.10;;;;;;5102259;28;20067;-63
2022/12/13 03:22:00;;;;;;;1.67;1.52;;;14.00;63.90;;;;;;5102406;28;20035;-63
2022/12/13 03:24:26;;;;;;;1.83;1.45;;;14.00;63.90;;;;;;5102362;28;20020;-66
2022/12/13 03:26:52;;;;;;;4.00;1.75;;;14.00;63.90;;;;;;5102335;28;20024;-63
2022/12/13 03:29:18;;;;;;;1.40;1.30;;;13.90;63.80;;;;;;5102294;28;20370;-63
2022/12/13 03:31:45;;;;;;;2.05;1.73;;;13.90;63.60;;;;;;5102287;28;20223;-63
2022/12/13 03:34:10;;;;;;;2.85;1.98;;;13.90;63.70;;;;;;5102250;28;20036;-62
2022/12/13 03:36:37;;;;;;;2.13;1.67;;;13.90;63.50;;;;;;5102217;28;20257;-63
2022/12/13 03:39:02;;;;;;;1.60;1.35;;;13.90;63.60;;;;;;5100831;28;20023;-63
2022/12/13 03:41:32;;;;;;;2.15;1.65;;;13.90;63.70;;;;;;5100983;28;20019;-63
2022/12/13 03:44:06;;;;;;;1.90;1.52;;;13.90;63.60;;;;;;5102052;28;20012;-62
2022/12/13 03:46:32;;;;;;;1.80;1.70;;;13.90;63.70;;;;;;5102063;28;20016;-63
2022/12/13 03:48:59;;;;;;;1.60;1.50;;;13.90;63.70;;;;;;5102092;28;20312;-62
2022/12/13 03:51:25;;;;;;;2.08;1.80;;;13.90;63.80;;;;;;5102378;28;20347;-63
2022/12/13 03:53:51;;;;;;;2.03;1.65;;;13.90;63.60;;;;;;5104994;28;20038;-63
2022/12/13 03:56:16;;;;;;;2.00;1.80;;;14.00;63.60;;;;;;5106105;28;20366;-63
2022/12/13 03:58:42;;;;;;;2.15;1.80;;;14.00;63.40;;;;;;5106025;28;20023;-63
2022/12/13 04:01:11;;;;;;;2.15;1.48;;;13.90;64.00;;;;;;5106058;28;20085;-63
2022/12/13 04:03:38;;;;;;;;;;;13.80;64.00;;;;;;5106437;28;20012;-62
2022/12/13 04:06:04;;;;;;;1.88;1.58;;;13.80;64.40;;;;;;5105971;28;19900;-64
2022/12/13 04:08:30;;;;;;;2.00;1.50;;;13.80;64.70;;;;;;5105879;28;20064;-62
2022/12/13 04:10:56;;;;;;;1.27;1.15;;;13.80;64.50;;;;;;5105855;28;20023;-63
2022/12/13 04:13:34;;;;;;;1.98;1.52;;;13.80;64.50;;;;;;5105802;28;20016;-64
2022/12/13 04:16:01;;;;;;;1.90;1.55;;;13.80;64.20;;;;;;5104609;28;20012;-62
2022/12/13 04:18:27;;;;;;;1.75;1.55;;;13.80;64.10;;;;;;5105587;28;20024;-63
2022/12/13 04:20:53;;;;;;;1.95;1.77;;;13.80;63.90;;;;;;5105615;28;20349;-63
2022/12/13 04:23:18;;;;;;;1.85;1.55;;;13.90;63.80;;;;;;5105668;28;20383;-63
2022/12/13 04:25:45;;;;;;;2.08;1.92;;;13.90;63.50;;;;;;5105651;28;20023;-63
2022/12/13 04:28:11;;;;;;;1.73;1.52;;;13.80;63.60;;;;;;5105628;28;20025;-63
2022/12/13 04:30:36;;;;;;;2.22;1.73;;;13.90;63.50;;;;;;5105487;28;20016;-64
2022/12/13 04:33:02;;;;;;;2.70;1.92;;;13.90;63.60;;;;;;5105484;28;20370;-63
2022/12/13 04:35:28;;;;;;;2.78;1.80;;;13.90;63.60;;;;;;5105471;28;20027;-63
2022/12/13 04:37:55;;;;;;;2.00;1.80;;;13.80;63.40;;;;;;5105415;28;20371;-63
2022/12/13 04:40:22;;;;;;;1.80;1.70;;;13.90;63.50;;;;;;5105198;28;20368;-64
2022/12/13 04:42:48;;;;;;;1.95;1.75;;;13.80;63.30;;;;;;5105296;28;20073;-63
2022/12/13 04:45:16;;;;;;;2.03;1.60;;;13.80;63.40;;;;;;5104113;28;20016;-63
2022/12/13 04:47:42;;;;;;;2.10;1.75;;;13.80;63.40;;;;;;5105225;28;20019;-63
2022/12/13 04:50:09;;;;;;;1.80;1.70;;;13.80;63.40;;;;;;5105214;28;20061;-63
2022/12/13 04:52:36;;;;;;;1.70;1.40;;;13.80;63.30;;;;;;5105119;28;20040;-64
2022/12/13 04:55:02;;;;;;;2.35;1.77;;;13.80;63.50;;;;;;5105040;28;20024;-64
2022/12/13 04:57:28;;;;;;;2.78;2.10;;;13.80;63.50;;;;;;5104978;28;20216;-63
2022/12/13 04:59:54;;;;;;;2.40;1.50;;;13.80;63.90;;;;;;5104858;28;20020;-62
2022/12/13 05:02:19;;;;;;;2.03;1.73;;;13.80;63.60;;;;;;5104855;28;20335;-63
2022/12/13 05:04:45;;;;;;;2.05;1.60;;;13.80;63.50;;;;;;5104042;28;20023;-63
2022/12/13 05:07:11;;;;;;;1.83;1.70;;;13.80;64.00;;;;;;5104783;28;20020;-63
2022/12/13 05:09:37;;;;;;;2.97;2.13;;;13.80;63.80;;;;;;5104730;28;20031;-63
2022/12/13 05:12:03;;;;;;;2.30;1.73;;;13.80;63.50;;;;;;5104688;28;20298;-63
2022/12/13 05:14:32;;;;;;;1.67;1.38;;;13.80;64.10;;;;;;5104734;28;20043;-63
2022/12/13 05:16:59;;;;;;;1.65;1.55;;;13.80;64.00;;;;;;5104612;28;20045;-63
2022/12/13 05:19:25;;;;;;;1.65;1.45;;;13.80;64.00;;;;;;5104358;28;20047;-63
2022/12/13 05:21:51;;;;;;;1.40;1.30;;;13.80;63.80;;;;;;5103468;28;20070;-63
2022/12/13 05:24:16;;;;;;;2.00;1.77;;;13.80;63.80;;;;;;5104441;28;20024;-63
2022/12/13 05:26:42;;;;;;;1.73;1.55;;;13.80;63.40;;;;;;5103250;28;20055;-63
2022/12/13 05:29:08;;;;;;;1.60;1.50;;;13.80;63.50;;;;;;5104422;28;20020;-64
2022/12/13 05:31:34;;;;;;;3.10;1.65;;;13.80;63.30;;;;;;5104315;28;20069;-63
2022/12/13 05:34:00;;;;;;;2.35;2.15;;;13.80;63.40;;;;;;5103081;28;20266;-63
2022/12/13 05:36:26;;;;;;;2.25;1.95;;;13.80;63.20;;;;;;5104219;28;20023;-63
2022/12/13 05:38:52;;;;;;;1.65;1.55;;;13.80;63.30;;;;;;5104138;28;20181;-63
2022/12/13 05:41:23;;;;;;;1.92;1.67;;;13.70;63.50;;;;;;5104112;28;20388;-64
2022/12/13 05:43:49;;;;;;;2.75;2.05;;;13.70;63.30;;;;;;5104119;28;20016;-64
2022/12/13 05:46:15;;;;;;;1.90;1.70;;;13.70;63.20;;;;;;5104048;28;20008;-63
2022/12/13 05:48:41;;;;;;;2.05;1.67;;;13.70;63.00;;;;;;5103987;28;20028;-63
2022/12/13 05:51:08;;;;;;;1.65;1.50;;;13.70;63.30;;;;;;5103990;28;20016;-62
2022/12/13 05:53:34;;;;;;;1.90;1.70;;;13.70;63.40;;;;;;5103906;28;20023;-63
2022/12/13 05:56:01;;;;;;;2.38;1.85;;;13.70;63.40;;;;;;5103896;28;20016;-63
2022/12/13 05:58:27;;;;;;;2.20;1.75;;;13.70;63.40;;;;;;5103861;28;20027;-63
2022/12/13 06:00:53;;;;;;;2.15;1.95;;;13.70;63.30;;;;;;5103709;28;20020;-64
2022/12/13 06:03:19;;;;;;;2.33;2.00;;;13.70;63.50;;;;;;5103690;28;20325;-63
2022/12/13 06:05:45;;;;;;;1.88;1.67;;;13.70;63.50;;;;;;5103730;28;20028;-63
2022/12/13 06:08:11;;;;;;;2.22;1.70;;;13.70;63.40;;;;;;5103612;28;20039;-63
2022/12/13 06:10:37;;;;;;;2.30;1.98;;;13.70;63.00;;;;;;5103626;28;20046;-64
2022/12/13 06:13:04;;;;;;;2.40;1.83;;;13.80;63.30;;;;;;5103582;28;20069;-63
2022/12/13 06:15:30;;;;;;;2.17;1.90;;;13.80;62.90;;;;;;5103513;28;20020;-63
2022/12/13 06:17:59;;;;;;;2.58;1.92;;;13.80;63.00;;;;;;5103500;28;20016;-63
2022/12/13 06:20:25;;;;;;;3.10;2.08;;;13.90;63.10;;;;;;5103194;28;20117;-63
2022/12/13 06:22:52;;;;;;;1.63;1.52;;;13.80;63.70;;;;;;5103366;28;20024;-64
2022/12/13 06:25:18;;;;;;;3.17;1.70;;;13.80;63.50;;;;;;5103313;28;20308;-62
2022/12/13 06:27:43;;;;;;;2.30;1.65;;;13.80;63.60;;;;;;5103249;28;20024;-63
2022/12/13 06:30:10;;;;;;;2.17;1.83;;;13.80;63.20;;;;;;5103216;28;20024;-64
2022/12/13 06:32:36;;;;;;;1.88;1.67;;;13.80;63.20;;;;;;5103125;28;20303;-63
2022/12/13 06:35:01;;;;;;;2.10;1.88;;;13.80;63.10;;;;;;5103128;28;20055;-63
2022/12/13 06:37:27;;;;;;;2.42;1.90;;;13.80;63.10;;;;;;5103083;28;20016;-62
2022/12/13 06:39:53;;;;;;;2.55;2.15;;;13.70;63.00;;;;;;5102949;28;20087;-62
2022/12/13 06:42:19;;;;;;;2.10;1.85;;;13.70;63.20;;;;;;5102998;28;20373;-63
2022/12/13 06:44:45;;;;;;;2.10;1.58;;;13.70;63.30;;;;;;5102923;28;20041;-62
2022/12/13 06:47:11;;;;;;;2.05;1.83;;;13.70;63.10;;;;;;5102905;28;20076;-63
2022/12/13 06:49:37;;;;;;;2.10;1.90;;;13.70;63.00;;;;;;5102839;28;20024;-63
2022/12/13 06:52:03;;;;;;;2.70;2.00;;;13.70;63.20;;;;;;5102894;28;20113;-63
2022/12/13 06:54:29;;;;;;;2.53;1.80;;;13.60;63.20;;;;;;5102800;28;20335;-63
2022/12/13 06:56:54;;;;;;;1.85;1.63;;;13.60;63.10;;;;;;5102795;28;20024;-63
2022/12/13 06:59:20;;;;;;;2.35;1.70;;;13.60;63.00;;;;;;5102648;28;20031;-63
2022/12/13 07:01:46;;;;;;;2.65;2.45;;;13.70;63.30;;;;;;5102729;28;20035;-62
2022/12/13 07:04:12;;;;;;;2.78;1.92;;;13.60;62.90;;;;;;5102604;28;20024;-63
2022/12/13 07:06:38;;;;;;;2.15;1.92;;;13.70;63.00;;;;;;5102613;28;20012;-63
2022/12/13 07:09:04;;;;;;;2.97;1.73;;;13.70;63.10;;;;;;5101422;28;20023;-62
2022/12/13 07:11:32;;;;;;;2.53;1.95;;;13.70;62.90;;;;;;5102542;28;20035;-63
2022/12/13 07:13:58;;;;;;;2.20;1.98;;;13.70;62.90;;;;;;5102516;28;20027;-63
2022/12/13 07:16:26;;;;;;;3.45;2.00;;;13.80;62.80;;;;;;5102481;28;20050;-63
2022/12/13 07:18:59;;;;;;;2.53;1.80;;;13.70;63.00;;;;;;5102199;28;20044;-64
2022/12/13 07:21:26;;;;;;;2.50;1.77;;;13.80;63.00;;;;;;5102341;28;20330;-63
2022/12/13 07:23:52;;;;;;;2.70;2.25;;;13.80;62.80;;;;;;5102331;28;20020;-63
2022/12/13 07:26:18;;;;;;;2.13;1.92;;;13.70;63.20;;;;;;5101866;28;20019;-63
2022/12/13 07:28:45;;;;;;;2.33;1.70;;;13.70;63.50;;;;;;5102159;28;20125;-62
2022/12/13 07:31:12;;;;;;;1.52;1.42;;;13.70;63.70;;;;;;5102230;28;20019;-63
2022/12/13 07:33:38;;;;;;;3.83;2.38;;;13.70;64.40;;;;;;5102325;28;20023;-63
2022/12/13 07:36:12;;;;;;;3.33;2.63;;;13.70;63.60;;;;;;5102240;28;20012;-64
2022/12/13 07:38:38;;;;;;;1.80;1.70;;;13.80;63.10;;;;;;5102381;28;20080;-63
2022/12/13 07:41:05;;;;;;;2.33;2.13;;;13.80;63.10;;;;;;5102230;28;20246;-63
2022/12/13 07:43:32;;;;;;;2.17;1.98;;;13.80;62.90;;;;;;5102128;28;20229;-64
2022/12/13 07:45:59;;;;;;;2.53;2.00;;;13.80;63.00;;;;;;5102195;28;20075;-64
2022/12/13 07:48:26;;;;;;;2.67;2.45;;;13.80;62.80;;;;;;5100933;28;20201;-63
2022/12/13 07:50:53;;;;;;;2.30;1.88;;;13.80;62.80;;;;;;5102156;28;20058;-64
2022/12/13 07:53:20;;;;;;;3.00;2.47;;;13.80;63.00;;;;;;5102054;28;20016;-63
2022/12/13 07:55:46;;;;;;;2.63;1.95;;;13.80;62.80;;;;;;5102399;28;20035;-63
2022/12/13 07:58:13;;;;;;;4.65;2.47;;;13.80;62.90;;;;;;5102065;28;20120;-63
2022/12/13 08:00:42;;;;;;;2.75;2.30;;;13.80;62.70;;;;;;5101979;28;20203;-63
2022/12/13 08:03:08;;;;;;;2.20;1.92;;;13.80;62.70;;;;;;5101994;28;20313;-63
2022/12/13 08:05:36;;;;;;;2.50;2.13;;;13.90;62.50;;;;;;5101939;28;20188;-63
2022/12/13 08:08:03;;;;;;;2.38;2.00;;;13.90;62.50;;;;;;5101976;28;20023;-63
2022/12/13 08:10:29;;;;;;;2.47;2.03;;;14.00;62.40;;;;;;5100711;28;20214;-62
2022/12/13 08:12:56;;;;;;;2.10;1.70;;;14.00;62.60;;;;;;5101918;28;20064;-62
2022/12/13 08:15:22;;;;;;;1.70;1.60;;;14.00;62.30;;;;;;5101911;28;20093;-63
2022/12/13 08:17:48;;;;;;;1.80;1.70;;;14.00;62.40;;;;;;5101937;28;20016;-62
2022/12/13 08:20:14;;;;;;;1.80;1.60;;;14.00;62.50;;;;;;5101673;28;20086;-62
2022/12/13 08:22:40;;;;;;;1.90;1.70;;;14.10;62.40;;;;;;5101710;28;20012;-62
2022/12/13 08:25:06;;;;;;;2.63;1.60;;;14.10;62.40;;;;;;5102046;28;20023;-62
2022/12/13 08:27:32;;;;;;;1.85;1.75;;;14.10;62.30;;;;;;5101812;28;20016;-62
2022/12/13 08:29:58;;;;;;;2.22;1.60;;;14.10;62.20;;;;;;5101777;28;20026;-62
2022/12/13 08:32:24;;;;;;;2.30;1.90;;;14.10;62.20;;;;;;5101740;28;20035;-62
2022/12/13 08:34:50;;;;;;;2.38;1.70;;;14.10;62.20;;;;;;5100484;28;20069;-62
2022/12/13 08:37:16;;;;;;;2.47;2.03;;;14.10;62.40;;;;;;5101694;28;20019;-63
2022/12/13 08:39:43;;;;;;;2.13;1.88;;;14.10;62.50;;;;;;5103979;28;20051;-63
2022/12/13 08:42:16;;;;;;;2.00;1.70;;;14.10;62.50;;;;;;5105365;28;20016;-63
2022/12/13 08:44:42;;;;;;;2.08;1.63;;;14.10;62.60;;;;;;5105348;28;20062;-64
2022/12/13 08:47:08;;;;;;;2.53;1.77;;;14.10;62.60;;;;;;5105217;28;20075;-64
2022/12/13 08:49:34;;;;;;;3.00;2.30;;;14.10;62.60;;;;;;5105180;28;20043;-64
2022/12/13 08:52:00;;;;;;;2.72;2.03;;;14.00;62.60;;;;;;5105174;28;20203;-63
2022/12/13 08:54:26;;;;;;;2.08;1.70;;;14.00;62.50;;;;;;5105122;28;20032;-63
2022/12/13 08:56:52;;;;;;;2.28;1.85;;;14.00;62.70;;;;;;5105063;28;20291;-63
2022/12/13 08:59:18;;;;;;;2.72;2.38;;;14.00;62.80;;;;;;5104896;28;20077;-63
2022/12/13 09:01:44;;;;;;;2.40;1.83;;;14.00;62.90;;;;;;5104959;28;20016;-63
2022/12/13 09:04:10;;;;;;;2.42;1.75;;;14.00;63.00;;;;;;5104914;28;20204;-63
2022/12/13 09:06:36;;;;;;;2.10;1.70;;;14.00;62.50;;;;;;5104871;28;20012;-63
2022/12/13 09:09:02;;;;;;;2.78;2.10;;;14.10;62.90;;;;;;5104866;28;20026;-64
2022/12/13 09:11:28;;;;;;;1.80;1.60;;;14.10;62.70;;;;;;5104780;28;20052;-64
2022/12/13 09:13:53;;;;;;;2.03;1.63;;;14.10;62.70;;;;;;5104739;28;20089;-64
2022/12/13 09:16:23;;;;;;;1.70;1.40;;;14.10;62.60;;;;;;5104690;28;20081;-63
2022/12/13 09:18:50;;;;;;;1.90;1.63;;;14.10;62.70;;;;;;5104489;28;20403;-64
2022/12/13 09:21:17;;;;;;;2.70;1.83;;;14.10;63.00;;;;;;5104628;28;20208;-64
2022/12/13 09:23:43;;;;;;;2.25;1.50;;;14.10;62.80;;;;;;5104447;28;20028;-63
2022/12/13 09:26:14;;;;;;;2.33;1.60;;;14.10;62.90;;;;;;5104525;28;20016;-64
2022/12/13 09:28:40;;;;;;;2.25;1.77;;;14.10;62.90;;;;;;5104373;28;20019;-62
2022/12/13 09:31:08;;;;;;;2.45;1.70;;;14.10;63.00;;;;;;5104393;28;20020;-64
2022/12/13 09:33:34;;;;;;;2.65;1.90;;;14.10;63.10;;;;;;5104386;28;20236;-63
2022/12/13 09:36:07;;;;;;;1.70;1.50;;;14.10;63.00;;;;;;5104277;28;20019;-63
2022/12/13 09:38:35;;;;;;;2.20;2.00;;;14.10;62.90;;;;;;5103199;28;20324;-63
2022/12/13 09:41:25;;;;;;;1.80;1.70;;;14.20;62.90;;;;;;5104124;28;20024;-63
2022/12/13 09:43:59;;;;;;;2.03;1.75;;;14.20;63.00;;;;;;5104394;28;20016;-63
2022/12/13 09:46:36;;;;;;;1.70;1.60;;;14.20;62.80;;;;;;5104138;28;20012;-63
2022/12/13 09:49:06;;;;;;;2.53;1.75;;;14.20;63.00;;;;;;5103939;28;20016;-64
2022/12/13 09:51:33;;;;;;;3.00;1.90;;;14.20;63.00;;;;;;5103820;28;20222;-63
2022/12/13 09:53:59;;;;;;;1.98;1.63;;;14.20;63.00;;;;;;5103988;28;20062;-63
2022/12/13 09:56:27;;;;;;;1.60;1.40;;;14.20;62.80;;;;;;5103908;28;20249;-63
2022/12/13 09:58:55;;;;;;;2.33;1.77;;;14.20;62.60;;;;;;5103782;28;20057;-63
2022/12/13 10:01:22;;;;;;;2.53;1.80;;;14.30;62.80;;;;;;5103769;28;20016;-63
2022/12/13 10:03:54;;;;;;;1.75;1.65;;;14.30;63.00;;;;;;5103770;28;20034;-63
2022/12/13 10:06:22;;;;;;;2.35;1.83;;;14.30;62.90;;;;;;5103763;28;20016;-63
2022/12/13 10:08:52;;;;;;;1.95;1.67;;;14.30;62.90;;;;;;5103774;28;20024;-64
2022/12/13 10:11:19;;;;;;;1.48;1.38;;;14.30;63.00;;;;;;5103617;28;20304;-63
2022/12/13 10:13:54;;;;;;;1.67;1.50;;;14.30;62.90;;;;;;5103541;28;20211;-64
2022/12/13 10:16:35;;;;;;;2.25;1.70;;;14.40;63.00;;;;;;5103572;28;20344;-65
2022/12/13 10:19:23;;;;;;;1.83;1.70;;;14.30;63.00;;;;;;5103244;28;20051;-63
2022/12/13 10:21:50;;;;;;;1.70;1.40;;;14.40;63.00;;;;;;5103117;28;20348;-63
2022/12/13 10:24:18;;;;;;;1.50;1.40;;;14.40;63.10;;;;;;5103399;28;20311;-64
2022/12/13 10:26:44;;;;;;;1.88;1.70;;;14.40;63.10;;;;;;5103381;28;20327;-63
2022/12/13 10:29:10;;;;;;;2.53;1.85;;;14.40;63.00;;;;;;5103223;28;20016;-63
2022/12/13 10:31:48;;;;;;;1.77;1.50;;;14.40;63.00;;;;;;5103243;28;20046;-63
2022/12/13 10:34:25;;;;;;;2.75;2.22;;;14.40;62.90;;;;;;5101979;28;20020;-63
2022/12/13 10:36:51;;;;;;;1.60;1.50;;;14.40;62.90;;;;;;5103153;28;20019;-63
2022/12/13 10:39:38;;;;;;;1.52;1.42;;;14.50;62.90;;;;;;5103039;28;20016;-64
2022/12/13 10:42:14;;;;;;;1.88;1.75;;;14.50;62.80;;;;;;5103053;28;20130;-63
2022/12/13 10:44:40;;;;;;;1.90;1.50;;;14.60;62.60;;;;;;5102985;28;20042;-64
2022/12/13 10:47:09;;;;;;;2.58;1.77;;;14.60;62.50;;;;;;5102908;28;20012;-63
2022/12/13 10:49:52;;;;;;;1.60;1.25;;;14.60;62.60;;;;;;5102927;28;20508;-62
2022/12/13 10:52:24;;;;;;;2.92;1.65;;;14.60;62.40;;;;;;5102988;28;20077;-64
2022/12/13 10:54:50;;;;;;;2.45;1.80;;;14.70;62.40;;;;;;5102753;28;20030;-64
2022/12/13 10:57:17;;;;;;;2.13;1.83;;;14.70;62.30;;;;;;5102723;28;20034;-64
2022/12/13 10:59:44;;;;;;;1.73;1.52;;;14.70;62.30;;;;;;5102677;28;20413;-63
2022/12/13 11:02:33;;;;;;;1.55;1.30;;;14.70;62.30;;;;;;5102097;28;20207;-64
2022/12/13 11:05:24;;;;;;;1.25;1.15;;;14.70;62.10;;;;;;5102680;28;20023;-63
2022/12/13 11:07:50;;;;;;;2.20;1.52;;;14.70;62.30;;;;;;5102657;28;20320;-63
2022/12/13 11:10:19;;;;;;;2.50;1.92;;;14.70;62.40;;;;;;5102603;28;20019;-63
2022/12/13 11:12:45;;;;;;;;;;;14.70;62.30;;;;;;5102997;28;20315;-63
2022/12/13 11:15:21;;;;;;;1.95;1.75;;;14.70;62.30;;;;;;5102507;28;19904;-64
2022/12/13 11:17:53;;;;;;;2.08;1.65;;;14.70;62.40;;;;;;5101294;28;20020;-63
2022/12/13 11:20:23;;;;;;;1.75;1.45;;;14.70;62.30;;;;;;5100975;28;20493;-63
2022/12/13 11:23:00;;;;;;;2.10;1.90;;;14.70;62.20;;;;;;5102395;28;20401;-63
2022/12/13 11:25:32;;;;;;;3.30;1.90;;;14.80;62.20;;;;;;5102442;28;20013;-64
2022/12/13 11:28:07;;;;;;;2.25;2.03;;;14.70;62.10;;;;;;5102431;28;20097;-63
2022/12/13 11:30:50;;;;;;;1.73;1.63;;;14.70;61.80;;;;;;5102299;28;20016;-63
2022/12/13 11:33:50;;;;;;;1.83;1.48;;;14.70;61.90;;;;;;5101254;28;20020;-63
2022/12/13 11:36:37;;;;;;;1.92;1.25;;;14.70;62.00;;;;;;5102285;28;20039;-65
2022/12/13 11:39:09;;;;;;;2.30;1.58;;;14.70;62.10;;;;;;5102231;28;20391;-62
2022/12/13 11:42:08;;;;;;;2.95;1.80;;;14.70;62.00;;;;;;5102195;28;20012;-63
2022/12/13 11:44:42;;;;;;;1.73;1.50;;;14.60;62.10;;;;;;5099835;28;20046;-63
2022/12/13 11:47:18;;;;;;;1.60;1.27;;;14.60;62.20;;;;;;5102246;28;20008;-63
2022/12/13 11:49:46;;;;;;;1.83;1.67;;;14.50;62.30;;;;;;5102178;28;20016;-62
2022/12/13 11:52:20;;;;;;;1.70;1.40;;;14.40;62.40;;;;;;5102181;28;20036;-65
2022/12/13 11:54:55;;;;;;;2.55;1.85;;;14.40;62.50;;;;;;5102156;28;20350;-64
2022/12/13 11:57:42;;;;;;;1.90;1.50;;;14.40;62.60;;;;;;5102154;28;20085;-64
2022/12/13 12:00:39;;;;;;;2.25;1.98;;;14.40;62.80;;;;;;5102095;28;20020;-63
2022/12/13 12:03:33;;;;;;;1.70;1.52;;;14.40;62.80;;;;;;5102109;28;20016;-63
2022/12/13 12:06:14;;;;;;;2.33;1.85;;;14.30;62.80;;;;;;5097026;28;20033;-63
2022/12/13 12:08:52;;;;;;;1.63;1.50;;;14.30;63.50;;;;;;5102036;28;20012;-62
2022/12/13 12:11:56;;;;;;;1.63;1.52;;;14.30;62.80;;;;;;5101997;28;20020;-65
2022/12/13 12:14:42;;;;;;;1.67;1.30;;;14.40;62.80;;;;;;5105496;28;20028;-64
2022/12/13 12:17:12;;;;;;;1.73;1.50;;;14.30;62.70;;;;;;5105978;28;20046;-63
2022/12/13 12:19:42;;;;;;;2.33;1.85;;;14.30;62.70;;;;;;5105220;28;20055;-64
2022/12/13 12:22:42;;;;;;;1.92;1.65;;;14.40;62.70;;;;;;5106100;28;20024;-64
2022/12/13 12:25:21;;;;;;;2.33;1.58;;;14.40;62.60;;;;;;5105766;28;20062;-62
2022/12/13 12:28:08;;;;;;;2.15;1.60;;;14.40;62.70;;;;;;5105682;28;20365;-64
2022/12/13 12:30:43;;;;;;;2.33;1.55;;;14.40;62.60;;;;;;5105589;28;20296;-62
2022/12/13 12:33:44;;;;;;;2.15;1.67;;;14.40;62.40;;;;;;5105666;28;20028;-62
2022/12/13 12:36:21;;;;;;;2.78;1.73;;;14.60;62.10;;;;;;5063087;28;20032;-64
2022/12/13 12:39:08;;;;;;;2.22;1.80;;;14.70;61.60;;;;;;5100057;28;20039;-62
2022/12/13 12:42:13;;;;;;;1.80;1.27;;;14.80;61.30;;;;;;5105517;28;20012;-63
2022/12/13 12:44:48;;;;;;;1.85;1.50;;;14.80;61.10;;;;;;5105349;28;20020;-65
2022/12/13 12:47:39;;;;;;;2.80;1.90;;;14.90;60.80;;;;;;5105282;28;20023;-64
2022/12/13 12:50:17;;;;;;;2.05;1.52;;;15.00;60.20;;;;;;5105348;28;20092;-64
2022/12/13 12:53:01;;;;;;;1.50;1.40;;;15.30;59.60;;;;;;5105285;28;20028;-64
2022/12/13 12:56:14;;;;;;;1.95;1.38;;;15.60;58.80;;;;;;5105165;28;20245;-65
2022/12/13 12:59:09;;;;;;;1.55;1.25;;;15.80;58.10;;;;;;5082001;28;20034;-62
2022/12/13 13:02:03;;;;;;;1.67;1.45;;;15.90;57.60;;;;;;5105104;28;20035;-63
2022/12/13 13:04:34;;;;;;;1.67;1.50;;;16.00;57.20;;;;;;5105021;28;20020;-64
2022/12/13 13:07:12;;;;;;;1.67;1.58;;;16.00;57.10;;;;;;5104998;28;20311;-64